Terminal Aerodrome Forecast
Issued by NWS Grand Forks, ND

Home | Current Version | Previous Version | Graphics & Text | Print | Product List | Glossary On
Versions: 1 2 3 4 5 6 7 8 9 10 11 12 13 14 15 16 17 18 19 20
022
FTUS43 KFGF 062332
TAFGFK
TAF
KGFK 062332Z 0700/0724 30028G37KT 1/4SM -SN BLSN OVC009
     FM071500 31021G30KT 1 1/2SM -SN BLSN OVC008
     FM072300 32021G29KT 1 1/2SM BLSN OVC015=

USA.gov is the U.S. government's official web portal to all federal, state and local government web resources and services.